createdAt,value
2017-01-28T00:00:51.760Z,0.83
2017-01-28T00:01:52.472Z,0.63
2017-01-28T00:02:53.205Z,0.69
2017-01-28T00:03:53.889Z,0.76
2017-01-28T00:04:54.655Z,0.77
2017-01-28T00:05:55.326Z,0.62
2017-01-28T00:06:56.009Z,0.66
2017-01-28T00:07:56.679Z,0.73
2017-01-28T00:08:57.361Z,0.8
2017-01-28T00:09:58.052Z,0.73
2017-01-28T00:10:58.721Z,0.66
2017-01-28T00:11:59.394Z,0.63
2017-01-28T00:13:00.063Z,0.73
2017-01-28T00:14:00.751Z,0.62
2017-01-28T00:15:01.440Z,0.68
2017-01-28T00:16:02.118Z,0.68
2017-01-28T00:17:02.792Z,0.7
2017-01-28T00:18:03.467Z,0.76
2017-01-28T00:19:04.132Z,0.65
2017-01-28T00:20:04.810Z,0.73
2017-01-28T00:21:05.479Z,0.69
2017-01-28T00:22:06.148Z,0.68
2017-01-28T00:23:06.830Z,0.7
2017-01-28T00:24:07.492Z,0.73
2017-01-28T00:25:08.189Z,0.68
2017-01-28T00:26:08.863Z,0.68
2017-01-28T00:27:09.565Z,0.73
2017-01-28T00:28:10.258Z,0.69
2017-01-28T00:29:10.932Z,0.68
2017-01-28T00:30:11.602Z,0.69
2017-01-28T00:31:12.291Z,0.69
2017-01-28T00:32:12.973Z,0.73
2017-01-28T00:33:13.650Z,0.7
2017-01-28T00:34:14.363Z,0.68
2017-01-28T00:35:15.048Z,0.66
2017-01-28T00:36:15.723Z,0.69
2017-01-28T00:37:16.413Z,0.68
2017-01-28T00:38:17.088Z,0.6
2017-01-28T00:39:17.776Z,0.66
2017-01-28T00:40:18.464Z,0.6
2017-01-28T00:41:19.141Z,0.59
2017-01-28T00:42:19.828Z,0.58
2017-01-28T00:43:20.513Z,0.56
2017-01-28T00:44:21.207Z,0.59
2017-01-28T00:45:21.899Z,0.65
2017-01-28T00:46:22.582Z,0.58
2017-01-28T00:47:23.260Z,0.5
2017-01-28T00:48:23.962Z,0.62
2017-01-28T00:49:24.631Z,0.59
2017-01-28T00:50:25.310Z,0.52
2017-01-28T00:51:26.010Z,0.52
2017-01-28T00:52:26.677Z,0.49
2017-01-28T00:53:27.345Z,0.5
2017-01-28T00:54:28.038Z,0.6
2017-01-28T00:55:28.711Z,0.66
2017-01-28T00:56:29.373Z,0.56
2017-01-28T00:57:30.064Z,0.55
2017-01-28T00:58:30.755Z,0.55
2017-01-28T00:59:31.418Z,0.46
2017-01-28T01:00:32.092Z,0.58
2017-01-28T01:01:32.772Z,0.52
2017-01-28T01:02:33.444Z,0.49
2017-01-28T01:03:34.135Z,0.5
2017-01-28T01:04:34.795Z,0.52
2017-01-28T01:05:35.460Z,0.59
2017-01-28T01:06:36.131Z,0.5
2017-01-28T01:07:36.796Z,0.56
2017-01-28T01:08:37.472Z,0.47
2017-01-28T01:09:38.143Z,0.49
2017-01-28T01:10:38.819Z,0.5
2017-01-28T01:11:39.497Z,0.52
2017-01-28T01:12:40.162Z,0.55
2017-01-28T01:13:40.818Z,0.46
2017-01-28T01:14:41.495Z,0.47
2017-01-28T01:15:42.197Z,0.49
2017-01-28T01:16:42.854Z,0.46
2017-01-28T01:17:43.585Z,0.5
2017-01-28T01:18:44.259Z,0.47
2017-01-28T01:19:44.956Z,0.4
2017-01-28T01:20:45.645Z,0.44
2017-01-28T01:21:46.318Z,0.36
2017-01-28T01:22:46.999Z,0.37
2017-01-28T01:23:47.668Z,0.39
2017-01-28T01:24:48.340Z,0.39
2017-01-28T01:25:49.041Z,0.39
2017-01-28T01:26:49.717Z,0.47
2017-01-28T01:27:50.395Z,0.41
2017-01-28T01:28:51.068Z,0.46
2017-01-28T01:29:51.764Z,0.36
2017-01-28T01:30:52.443Z,0.32
2017-01-28T01:31:53.126Z,0.4
2017-01-28T01:32:53.809Z,0.39
2017-01-28T01:33:54.483Z,0.34
2017-01-28T01:34:55.144Z,0.43
2017-01-28T01:35:55.830Z,0.37
2017-01-28T01:36:56.525Z,0.4
2017-01-28T01:37:57.186Z,0.36
2017-01-28T01:38:57.855Z,0.39
2017-01-28T01:39:58.543Z,0.37
2017-01-28T01:40:59.246Z,0.34
2017-01-28T01:41:59.903Z,0.36
2017-01-28T01:43:00.579Z,0.36
2017-01-28T01:44:01.261Z,0.36
2017-01-28T01:45:01.948Z,0.36
2017-01-28T01:46:02.618Z,0.36
2017-01-28T01:47:03.448Z,0.26
2017-01-28T01:48:04.116Z,0.26
2017-01-28T01:49:04.807Z,0.31
2017-01-28T01:50:05.480Z,0.25
2017-01-28T01:51:06.170Z,0.28
2017-01-28T01:52:06.848Z,0.29
2017-01-28T01:53:07.527Z,0.26
2017-01-28T01:54:08.198Z,0.32
2017-01-28T01:55:08.877Z,0.31
2017-01-28T01:56:09.593Z,0.34
2017-01-28T01:57:10.275Z,0.39
2017-01-28T01:58:10.964Z,0.25
2017-01-28T01:59:11.633Z,0.36
2017-01-28T02:00:12.308Z,0.37
2017-01-28T02:01:13.007Z,0.29
2017-01-28T02:02:13.705Z,0.32
2017-01-28T02:03:14.376Z,0.26
2017-01-28T02:04:15.051Z,0.37
2017-01-28T02:05:15.754Z,0.36
2017-01-28T02:06:16.425Z,0.32
2017-01-28T02:07:17.106Z,0.36
2017-01-28T02:08:17.776Z,0.39
2017-01-28T02:09:18.463Z,0.29
2017-01-28T02:10:19.131Z,0.29
2017-01-28T02:11:19.813Z,0.23
2017-01-28T02:12:20.484Z,0.37
2017-01-28T02:13:21.172Z,0.32
2017-01-28T02:14:21.860Z,0.29
2017-01-28T02:15:22.581Z,0.32
2017-01-28T02:16:23.251Z,0.21
2017-01-28T02:17:23.931Z,0.23
2017-01-28T02:18:24.603Z,0.26
2017-01-28T02:19:25.267Z,0.26
2017-01-28T02:20:25.941Z,0.28
2017-01-28T02:21:26.613Z,0.28
2017-01-28T02:22:27.284Z,0.32
2017-01-28T02:23:27.958Z,0.23
2017-01-28T02:24:28.633Z,0.22
2017-01-28T02:25:29.306Z,0.31
2017-01-28T02:26:30.002Z,0.31
2017-01-28T02:27:30.702Z,0.28
2017-01-28T02:28:31.391Z,0.26
2017-01-28T02:29:32.050Z,0.29
2017-01-28T02:30:32.733Z,0.32
2017-01-28T02:31:33.404Z,0.22
2017-01-28T02:32:34.091Z,0.15
2017-01-28T02:33:34.779Z,0.16
2017-01-28T02:34:35.489Z,0.21
2017-01-28T02:35:36.162Z,0.01
2017-01-28T02:36:36.839Z,0.21
2017-01-28T02:37:37.521Z,0.1
2017-01-28T02:38:38.198Z,0.07
2017-01-28T02:39:38.883Z,0.08
2017-01-28T02:40:39.553Z,0.08
2017-01-28T02:41:40.237Z,0.15
2017-01-28T02:42:40.910Z,0.07
2017-01-28T02:43:41.574Z,0.11
2017-01-28T02:44:42.271Z,0.08
2017-01-28T02:45:42.992Z,0.08
2017-01-28T02:46:43.669Z,0.1
2017-01-28T02:47:44.331Z,0.1
2017-01-28T02:48:45.009Z,0.04
2017-01-28T02:49:45.713Z,0.08
2017-01-28T02:50:46.389Z,0.04
2017-01-28T02:51:47.059Z,0.01
2017-01-28T02:52:47.731Z,0.07
2017-01-28T02:53:48.415Z,0
2017-01-28T02:54:49.087Z,-0.02
2017-01-28T02:55:49.774Z,0
2017-01-28T02:56:50.444Z,-0.02
2017-01-28T02:57:51.125Z,-0.06
2017-01-28T02:58:51.820Z,0
2017-01-28T02:59:52.509Z,-0.03
2017-01-28T03:00:53.187Z,-0.06
2017-01-28T03:01:53.867Z,-0.08
2017-01-28T03:02:54.572Z,-0.11
2017-01-28T03:03:55.268Z,-0.06
2017-01-28T03:04:55.930Z,-0.06
2017-01-28T03:05:56.601Z,-0.06
2017-01-28T03:06:57.310Z,-0.02
2017-01-28T03:07:57.991Z,-0.07
2017-01-28T03:08:58.657Z,-0.06
2017-01-28T03:09:59.331Z,0.01
2017-01-28T03:11:00.007Z,-0.02
2017-01-28T03:12:00.679Z,-0.07
2017-01-28T03:13:01.358Z,-0.03
2017-01-28T03:14:02.033Z,0.01
2017-01-28T03:15:02.701Z,0.01
2017-01-28T03:16:03.404Z,-0.06
2017-01-28T03:17:04.088Z,0
2017-01-28T03:18:04.758Z,-0.03
2017-01-28T03:19:05.428Z,-0.07
2017-01-28T03:20:06.105Z,-0.03
2017-01-28T03:21:06.781Z,0.03
2017-01-28T03:22:07.447Z,-0.06
2017-01-28T03:23:08.113Z,-0.07
2017-01-28T03:24:08.779Z,-0.08
2017-01-28T03:25:09.474Z,-0.13
2017-01-28T03:26:10.139Z,-0.1
2017-01-28T03:27:10.816Z,-0.18
2017-01-28T03:28:11.493Z,-0.07
2017-01-28T03:29:12.174Z,-0.06
2017-01-28T03:30:12.838Z,-0.03
2017-01-28T03:31:13.506Z,-0.11
2017-01-28T03:32:14.189Z,-0.06
2017-01-28T03:33:14.863Z,-0.03
2017-01-28T03:34:15.558Z,-0.08
2017-01-28T03:35:16.232Z,-0.02
2017-01-28T03:36:16.914Z,-0.03
2017-01-28T03:37:17.586Z,0
2017-01-28T03:38:18.253Z,0
2017-01-28T03:39:18.931Z,0.05
2017-01-28T03:40:19.591Z,0.01
2017-01-28T03:41:20.268Z,0
2017-01-28T03:42:20.936Z,0.01
2017-01-28T03:43:21.601Z,-0.02
2017-01-28T03:44:22.287Z,0.01
2017-01-28T03:45:22.948Z,0.01
2017-01-28T03:46:23.644Z,-0.03
2017-01-28T03:47:24.297Z,0.01
2017-01-28T03:48:24.967Z,-0.02
2017-01-28T03:49:25.637Z,-0.03
2017-01-28T03:50:26.314Z,-0.03
2017-01-28T03:51:26.966Z,0
2017-01-28T03:52:27.659Z,0.01
2017-01-28T03:53:28.325Z,-0.03
2017-01-28T03:54:28.995Z,0
2017-01-28T03:55:29.670Z,0.01
2017-01-28T03:56:30.337Z,0.01
2017-01-28T03:57:31.028Z,-0.07
2017-01-28T03:58:31.710Z,0.01
2017-01-28T03:59:32.379Z,0.05
2017-01-28T04:00:33.077Z,0
2017-01-28T04:01:33.760Z,-0.03
2017-01-28T04:02:34.496Z,-0.03
2017-01-28T04:03:35.173Z,-0.06
2017-01-28T04:04:35.871Z,0.01
2017-01-28T04:05:36.551Z,0
2017-01-28T04:06:37.260Z,-0.07
2017-01-28T04:07:37.933Z,0.04
2017-01-28T04:08:38.611Z,-0.13
2017-01-28T04:09:39.320Z,0
2017-01-28T04:10:40.037Z,-0.14
2017-01-28T04:11:40.720Z,-0.03
2017-01-28T04:12:41.391Z,-0.02
2017-01-28T04:13:42.084Z,-0.1
2017-01-28T04:14:42.755Z,-0.11
2017-01-28T04:15:43.454Z,-0.02
2017-01-28T04:16:44.126Z,-0.1
2017-01-28T04:17:44.788Z,-0.07
2017-01-28T04:18:45.511Z,-0.13
2017-01-28T04:19:46.196Z,-0.08
2017-01-28T04:20:46.867Z,-0.06
2017-01-28T04:21:47.541Z,0.01
2017-01-28T04:22:48.211Z,-0.03
2017-01-28T04:23:48.882Z,-0.03
2017-01-28T04:24:49.558Z,0.03
2017-01-28T04:25:50.231Z,-0.1
2017-01-28T04:26:50.899Z,-0.06
2017-01-28T04:27:51.568Z,-0.06
2017-01-28T04:28:52.243Z,-0.03
2017-01-28T04:29:52.921Z,-0.08
2017-01-28T04:30:53.587Z,-0.07
2017-01-28T04:31:54.337Z,-0.08
2017-01-28T04:32:55.016Z,-0.08
2017-01-28T04:33:55.711Z,-0.14
2017-01-28T04:34:56.379Z,-0.13
2017-01-28T04:35:57.056Z,-0.13
2017-01-28T04:36:57.733Z,-0.11
2017-01-28T04:37:58.391Z,-0.14
2017-01-28T04:38:59.085Z,-0.14
2017-01-28T04:39:59.784Z,-0.18
2017-01-28T04:41:00.464Z,-0.13
2017-01-28T04:42:01.131Z,-0.23
2017-01-28T04:43:01.821Z,-0.15
2017-01-28T04:44:02.513Z,-0.18
2017-01-28T04:45:03.208Z,-0.13
2017-01-28T04:46:03.885Z,-0.11
2017-01-28T04:47:04.564Z,-0.2
2017-01-28T04:48:05.250Z,-0.15
2017-01-28T04:49:05.927Z,-0.17
2017-01-28T04:50:06.609Z,-0.11
2017-01-28T04:51:07.287Z,-0.15
2017-01-28T04:52:07.972Z,-0.15
2017-01-28T04:53:08.638Z,-0.14
2017-01-28T04:54:09.316Z,-0.21
2017-01-28T04:55:09.984Z,-0.18
2017-01-28T04:56:10.655Z,-0.2
2017-01-28T04:57:11.333Z,-0.15
2017-01-28T04:58:12.003Z,-0.2
2017-01-28T04:59:12.688Z,-0.18
2017-01-28T05:00:13.362Z,-0.23
2017-01-28T05:01:14.050Z,-0.25
2017-01-28T05:02:14.731Z,-0.26
2017-01-28T05:03:15.402Z,-0.28
2017-01-28T05:04:16.080Z,-0.26
2017-01-28T05:05:16.748Z,-0.23
2017-01-28T05:06:17.426Z,-0.31
2017-01-28T05:07:18.089Z,-0.31
2017-01-28T05:08:18.747Z,-0.31
2017-01-28T05:09:19.432Z,-0.26
2017-01-28T05:10:20.088Z,-0.26
2017-01-28T05:11:20.769Z,-0.41
2017-01-28T05:12:21.450Z,-0.36
2017-01-28T05:13:22.122Z,-0.29
2017-01-28T05:14:22.798Z,-0.36
2017-01-28T05:15:23.467Z,-0.35
2017-01-28T05:16:24.138Z,-0.36
2017-01-28T05:17:24.808Z,-0.35
2017-01-28T05:18:25.495Z,-0.44
2017-01-28T05:19:26.158Z,-0.36
2017-01-28T05:20:26.878Z,-0.43
2017-01-28T05:21:27.580Z,-0.56
2017-01-28T05:22:28.248Z,-0.57
2017-01-28T05:23:28.919Z,-0.47
2017-01-28T05:24:29.586Z,-0.59
2017-01-28T05:25:30.282Z,-0.41
2017-01-28T05:26:30.956Z,-0.56
2017-01-28T05:27:31.624Z,-0.47
2017-01-28T05:28:32.306Z,-0.49
2017-01-28T05:29:32.969Z,-0.56
2017-01-28T05:30:33.647Z,-0.47
2017-01-28T05:31:34.342Z,-0.46
2017-01-28T05:32:35.031Z,-0.54
2017-01-28T05:33:35.707Z,-0.52
2017-01-28T05:34:36.378Z,-0.56
2017-01-28T05:35:37.051Z,-0.62
2017-01-28T05:36:37.725Z,-0.65
2017-01-28T05:37:38.406Z,-0.62
2017-01-28T05:38:39.121Z,-0.61
2017-01-28T05:39:39.791Z,-0.65
2017-01-28T05:40:40.465Z,-0.62
2017-01-28T05:41:41.135Z,-0.62
2017-01-28T05:42:41.817Z,-0.56
2017-01-28T05:43:42.486Z,-0.64
2017-01-28T05:44:43.174Z,-0.59
2017-01-28T05:45:43.850Z,-0.59
2017-01-28T05:46:44.521Z,-0.61
2017-01-28T05:47:45.194Z,-0.64
2017-01-28T05:48:45.863Z,-0.59
2017-01-28T05:49:46.542Z,-0.67
2017-01-28T05:50:47.247Z,-0.67
2017-01-28T05:51:47.919Z,-0.59
2017-01-28T05:52:48.604Z,-0.62
2017-01-28T05:53:49.302Z,-0.59
2017-01-28T05:54:49.995Z,-0.59
2017-01-28T05:55:50.653Z,-0.61
2017-01-28T05:56:51.345Z,-0.59
2017-01-28T05:57:52.032Z,-0.57
2017-01-28T05:58:52.707Z,-0.61
2017-01-28T05:59:53.388Z,-0.61
2017-01-28T06:00:54.059Z,-0.68
2017-01-28T06:01:54.736Z,-0.68
2017-01-28T06:02:55.406Z,-0.68
2017-01-28T06:03:56.081Z,-0.65
2017-01-28T06:04:56.757Z,-0.7
2017-01-28T06:05:57.438Z,-0.67
2017-01-28T06:06:58.128Z,-0.64
2017-01-28T06:07:58.811Z,-0.59
2017-01-28T06:08:59.479Z,-0.62
2017-01-28T06:10:00.145Z,-0.64
2017-01-28T06:11:00.817Z,-0.62
2017-01-28T06:12:01.673Z,-0.57
2017-01-28T06:13:02.343Z,-0.61
2017-01-28T06:14:03.030Z,-0.67
2017-01-28T06:15:03.704Z,-0.62
2017-01-28T06:16:04.377Z,-0.61
2017-01-28T06:17:05.056Z,-0.57
2017-01-28T06:18:05.719Z,-0.59
2017-01-28T06:19:06.397Z,-0.64
2017-01-28T06:20:07.071Z,-0.67
2017-01-28T06:21:07.742Z,-0.62
2017-01-28T06:22:08.422Z,-0.62
2017-01-28T06:23:09.100Z,-0.57
2017-01-28T06:24:09.785Z,-0.57
2017-01-28T06:25:10.444Z,-0.7
2017-01-28T06:26:11.109Z,-0.64
2017-01-28T06:27:11.789Z,-0.67
2017-01-28T06:28:12.465Z,-0.71
2017-01-28T06:29:13.129Z,-0.78
2017-01-28T06:30:13.827Z,-0.7
2017-01-28T06:31:14.492Z,-0.75
2017-01-28T06:32:15.153Z,-0.77
2017-01-28T06:33:15.824Z,-0.77
2017-01-28T06:34:16.524Z,-0.77
2017-01-28T06:35:17.197Z,-0.8
2017-01-28T06:36:17.867Z,-0.78
2017-01-28T06:37:18.544Z,-0.9
2017-01-28T06:38:19.217Z,-0.8
2017-01-28T06:39:19.880Z,-0.83
2017-01-28T06:40:20.568Z,-0.85
2017-01-28T06:41:21.246Z,-0.89
2017-01-28T06:42:21.911Z,-0.85
2017-01-28T06:43:22.572Z,-0.86
2017-01-28T06:44:23.271Z,-0.83
2017-01-28T06:45:23.953Z,-0.83
2017-01-28T06:46:24.639Z,-0.85
2017-01-28T06:47:25.317Z,-0.86
2017-01-28T06:48:25.995Z,-0.86
2017-01-28T06:49:26.681Z,-0.85
2017-01-28T06:50:27.333Z,-0.82
2017-01-28T06:51:28.014Z,-0.78
2017-01-28T06:52:28.688Z,-0.82
2017-01-28T06:53:29.367Z,-0.96
2017-01-28T06:54:30.048Z,-0.89
2017-01-28T06:55:30.736Z,-0.83
2017-01-28T06:56:31.421Z,-0.91
2017-01-28T06:57:32.094Z,-0.86
2017-01-28T06:58:32.759Z,-0.85
2017-01-28T06:59:33.467Z,-0.83
2017-01-28T07:00:34.124Z,-0.8
2017-01-28T07:01:34.809Z,-0.83
2017-01-28T07:02:35.476Z,-0.82
2017-01-28T07:03:36.141Z,-0.85
2017-01-28T07:04:36.814Z,-0.83
2017-01-28T07:05:37.483Z,-0.83
2017-01-28T07:06:38.155Z,-0.86
2017-01-28T07:07:38.834Z,-0.78
2017-01-28T07:08:39.503Z,-0.8
2017-01-28T07:09:40.183Z,-0.78
2017-01-28T07:10:40.844Z,-0.83
2017-01-28T07:11:41.518Z,-0.89
2017-01-28T07:12:42.190Z,-0.89
2017-01-28T07:13:42.871Z,-0.9
2017-01-28T07:14:43.536Z,-0.9
2017-01-28T07:15:44.209Z,-0.85
2017-01-28T07:16:44.918Z,-0.86
2017-01-28T07:17:45.598Z,-0.82
2017-01-28T07:18:46.384Z,-0.85
2017-01-28T07:19:47.063Z,-0.86
2017-01-28T07:20:47.764Z,-0.83
2017-01-28T07:21:48.484Z,-0.83
2017-01-28T07:22:49.158Z,-0.85
2017-01-28T07:23:49.832Z,-0.9
2017-01-28T07:24:50.517Z,-0.9
2017-01-28T07:25:51.202Z,-0.78
2017-01-28T07:26:51.866Z,-0.82
2017-01-28T07:27:52.557Z,-0.9
2017-01-28T07:28:53.224Z,-0.9
2017-01-28T07:29:53.903Z,-0.83
2017-01-28T07:30:54.588Z,-0.82
2017-01-28T07:31:55.276Z,-0.72
2017-01-28T07:32:55.961Z,-0.85
2017-01-28T07:33:56.635Z,-0.82
2017-01-28T07:34:57.326Z,-0.8
2017-01-28T07:35:58.028Z,-0.82
2017-01-28T07:36:58.699Z,-0.7
2017-01-28T07:37:59.368Z,-0.75
2017-01-28T07:39:00.042Z,-0.74
2017-01-28T07:40:00.719Z,-0.71
2017-01-28T07:41:01.399Z,-0.74
2017-01-28T07:42:02.068Z,-0.77
2017-01-28T07:43:02.738Z,-0.7
2017-01-28T07:44:03.404Z,-0.71
2017-01-28T07:45:04.127Z,-0.74
2017-01-28T07:46:04.793Z,-0.72
2017-01-28T07:47:05.480Z,-0.75
2017-01-28T07:48:06.287Z,-0.7
2017-01-28T07:49:07.223Z,-0.77
2017-01-28T07:50:07.903Z,-0.72
2017-01-28T07:51:08.587Z,-0.7
2017-01-28T07:52:09.260Z,-0.78
2017-01-28T07:53:09.927Z,-0.75
2017-01-28T07:54:10.636Z,-0.72
2017-01-28T07:55:11.319Z,-0.7
2017-01-28T07:56:11.991Z,-0.68
2017-01-28T07:57:12.656Z,-0.68
2017-01-28T07:58:13.337Z,-0.72
2017-01-28T07:59:14.040Z,-0.75
2017-01-28T08:00:14.734Z,-0.72
2017-01-28T08:01:15.411Z,-0.77
2017-01-28T08:02:16.090Z,-0.68
2017-01-28T08:03:16.759Z,-0.67
2017-01-28T08:04:17.459Z,-0.65
2017-01-28T08:05:18.144Z,-0.67
2017-01-28T08:06:18.830Z,-0.64
2017-01-28T08:07:19.505Z,-0.64
2017-01-28T08:08:20.220Z,-0.64
2017-01-28T08:09:20.889Z,-0.7
2017-01-28T08:10:21.558Z,-0.67
2017-01-28T08:11:22.229Z,-0.62
2017-01-28T08:12:22.902Z,-0.74
2017-01-28T08:13:23.570Z,-0.64
2017-01-28T08:14:24.291Z,-0.67
2017-01-28T08:15:25.014Z,-0.59
2017-01-28T08:16:25.687Z,-0.65
2017-01-28T08:17:26.399Z,-0.61
2017-01-28T08:18:27.089Z,-0.54
2017-01-28T08:19:27.787Z,-0.53
2017-01-28T08:20:28.473Z,-0.62
2017-01-28T08:21:29.163Z,-0.47
2017-01-28T08:22:29.831Z,-0.59
2017-01-28T08:23:30.501Z,-0.49
2017-01-28T08:24:31.168Z,-0.47
2017-01-28T08:25:31.873Z,-0.38
2017-01-28T08:26:32.583Z,-0.43
2017-01-28T08:27:33.278Z,-0.41
2017-01-28T08:28:33.979Z,-0.43
2017-01-28T08:29:34.659Z,-0.35
2017-01-28T08:30:35.347Z,-0.36
2017-01-28T08:31:36.027Z,-0.28
2017-01-28T08:32:36.799Z,-0.28
2017-01-28T08:33:37.497Z,-0.18
2017-01-28T08:34:38.179Z,-0.15
2017-01-28T08:35:38.866Z,-0.11
2017-01-28T08:36:39.556Z,-0.14
2017-01-28T08:37:40.259Z,-0.11
2017-01-28T08:38:41.050Z,-0.11
2017-01-28T08:39:41.912Z,-0.03
2017-01-28T08:40:42.636Z,-0.06
2017-01-28T08:41:43.344Z,0
2017-01-28T08:42:44.020Z,0
2017-01-28T08:43:44.753Z,0.05
2017-01-28T08:44:45.405Z,0.08
2017-01-28T08:45:46.075Z,0.21
2017-01-28T08:46:46.756Z,0.25
2017-01-28T08:47:47.431Z,0.11
2017-01-28T08:48:48.120Z,0.21
2017-01-28T08:49:48.868Z,0.26
2017-01-28T08:50:49.539Z,0.32
2017-01-28T08:51:50.208Z,0.31
2017-01-28T08:52:50.900Z,0.49
2017-01-28T08:53:51.578Z,0.32
2017-01-28T08:54:52.265Z,0.37
2017-01-28T08:55:52.940Z,0.5
2017-01-28T08:56:53.639Z,0.7
2017-01-28T08:57:54.399Z,0.83
2017-01-28T08:58:55.066Z,0.74
2017-01-28T08:59:55.761Z,0.95
2017-01-28T09:00:56.451Z,1.06
2017-01-28T09:01:57.127Z,1.14
2017-01-28T09:02:57.802Z,1.14
2017-01-28T09:03:58.475Z,1.17
2017-01-28T09:04:59.147Z,1.17
2017-01-28T09:05:59.842Z,1.16
2017-01-28T09:07:00.534Z,0.99
2017-01-28T09:08:01.221Z,1.17
2017-01-28T09:09:01.916Z,1.08
2017-01-28T09:10:02.581Z,1.05
2017-01-28T09:11:03.259Z,1.06
2017-01-28T09:12:03.939Z,1.04
2017-01-28T09:13:04.636Z,1.01
2017-01-28T09:14:05.337Z,0.96
2017-01-28T09:15:06.135Z,0.87
2017-01-28T09:16:07.056Z,0.88
2017-01-28T09:17:07.738Z,0.86
2017-01-28T09:18:08.435Z,0.87
2017-01-28T09:19:09.126Z,0.87
2017-01-28T09:20:09.811Z,0.88
2017-01-28T09:21:10.498Z,0.8
2017-01-28T09:22:11.212Z,0.88
2017-01-28T09:23:11.946Z,0.8
2017-01-28T09:24:12.674Z,0.78
2017-01-28T09:25:13.381Z,0.77
2017-01-28T09:26:14.063Z,0.86
2017-01-28T09:27:15.233Z,0.78
2017-01-28T09:28:15.904Z,0.83
2017-01-28T09:29:16.581Z,0.81
2017-01-28T09:30:17.262Z,0.87
2017-01-28T09:31:18.012Z,0.87
2017-01-28T09:32:18.717Z,0.77
2017-01-28T09:33:19.391Z,0.87
2017-01-28T09:34:20.081Z,0.78
2017-01-28T09:35:20.757Z,0.88
2017-01-28T09:36:21.439Z,0.91
2017-01-28T09:37:22.124Z,0.95
2017-01-28T09:38:22.852Z,0.86
2017-01-28T09:39:23.515Z,0.88
2017-01-28T09:40:24.202Z,0.83
2017-01-28T09:41:24.881Z,0.78
2017-01-28T09:42:25.559Z,0.84
2017-01-28T09:43:26.254Z,0.95
2017-01-28T09:44:26.943Z,1.01
2017-01-28T09:45:27.613Z,0.86
2017-01-28T09:46:28.290Z,0.87
2017-01-28T09:47:28.975Z,0.87
2017-01-28T09:48:29.671Z,0.88
2017-01-28T09:49:30.352Z,0.95
2017-01-28T09:50:31.049Z,1.02
2017-01-28T09:51:31.726Z,0.96
2017-01-28T09:52:32.398Z,1.05
2017-01-28T09:53:33.085Z,0.95
2017-01-28T09:54:33.764Z,1.04
2017-01-28T09:55:34.444Z,1.08
2017-01-28T09:56:35.117Z,1.06
2017-01-28T09:57:35.810Z,1.05
2017-01-28T09:58:36.490Z,1.05
2017-01-28T09:59:37.185Z,1.1
2017-01-28T10:00:37.853Z,1.14
2017-01-28T10:01:38.529Z,1.2
2017-01-28T10:02:39.242Z,1.3
2017-01-28T10:03:39.964Z,1.2
2017-01-28T10:04:40.641Z,1.26
2017-01-28T10:05:41.305Z,1.38
2017-01-28T10:06:41.988Z,1.38
2017-01-28T10:07:42.661Z,1.38
2017-01-28T10:08:58.103Z,1.48
2017-01-28T10:09:58.773Z,1.5
2017-01-28T10:10:59.434Z,1.4
2017-01-28T10:12:00.092Z,1.42
2017-01-28T10:13:00.754Z,1.44
2017-01-28T10:14:01.440Z,1.45
2017-01-28T10:15:02.117Z,1.48
2017-01-28T10:16:02.768Z,1.44
2017-01-28T10:17:03.439Z,1.52
2017-01-28T10:18:04.095Z,1.48
2017-01-28T10:19:04.786Z,1.58
2017-01-28T10:20:05.455Z,1.52
2017-01-28T10:21:06.127Z,1.48
2017-01-28T10:22:06.803Z,1.56
2017-01-28T10:23:07.470Z,1.58
2017-01-28T10:24:08.201Z,1.67
2017-01-28T10:25:08.870Z,1.66
2017-01-28T10:26:09.545Z,1.63
2017-01-28T10:27:10.212Z,1.66
2017-01-28T10:28:10.917Z,1.68
2017-01-28T10:29:11.600Z,1.77
2017-01-28T10:30:12.275Z,1.73
2017-01-28T10:31:12.966Z,1.73
2017-01-28T10:32:13.712Z,1.88
2017-01-28T10:33:14.414Z,1.78
2017-01-28T10:34:15.088Z,1.73
2017-01-28T10:35:15.754Z,1.91
2017-01-28T10:36:16.466Z,1.91
2017-01-28T10:37:17.115Z,1.89
2017-01-28T10:38:17.878Z,1.94
2017-01-28T10:39:18.548Z,1.95
2017-01-28T10:40:19.214Z,1.95
2017-01-28T10:41:19.961Z,1.91
2017-01-28T10:42:20.797Z,2.07
2017-01-28T10:43:21.735Z,2.02
2017-01-28T10:44:22.554Z,2
2017-01-28T10:45:23.272Z,2.11
2017-01-28T10:46:24.004Z,2.13
2017-01-28T10:47:24.850Z,2.11
2017-01-28T10:48:25.509Z,2.13
2017-01-28T10:49:26.367Z,2.15
2017-01-28T10:50:27.169Z,2.22
2017-01-28T10:51:27.853Z,2.22
2017-01-28T10:52:28.578Z,2.26
2017-01-28T10:53:29.567Z,2.28
2017-01-28T10:54:30.569Z,2.29
2017-01-28T10:55:31.608Z,2.29
2017-01-28T10:56:32.374Z,2.28
2017-01-28T10:57:33.290Z,2.32
2017-01-28T10:58:34.050Z,2.33
2017-01-28T10:59:34.951Z,2.39
2017-01-28T11:00:35.826Z,2.32
2017-01-28T11:01:37.025Z,2.29
2017-01-28T11:02:38.172Z,2.53
2017-01-28T11:03:38.993Z,2.51
2017-01-28T11:04:39.992Z,2.69
2017-01-28T11:05:40.592Z,2.75
2017-01-28T11:06:41.327Z,2.74
2017-01-28T11:07:42.425Z,2.65
2017-01-28T11:08:43.287Z,2.54
2017-01-28T11:09:44.500Z,2.57
2017-01-28T11:10:45.262Z,2.54
2017-01-28T11:11:46.342Z,2.5
2017-01-28T11:12:47.210Z,2.49
2017-01-28T11:13:47.946Z,2.53
2017-01-28T11:14:48.757Z,2.46
2017-01-28T11:15:49.547Z,2.53
2017-01-28T11:16:50.469Z,2.49
2017-01-28T11:17:51.585Z,2.5
2017-01-28T11:18:52.416Z,2.46
2017-01-28T11:19:53.844Z,2.51
2017-01-28T11:20:54.682Z,2.46
2017-01-28T11:21:55.485Z,2.51
2017-01-28T11:22:56.903Z,2.43
2017-01-28T11:23:57.703Z,2.46
2017-01-28T11:24:58.630Z,2.49
2017-01-28T11:25:59.517Z,2.47
2017-01-28T11:27:00.538Z,2.44
2017-01-28T11:28:01.751Z,2.44
2017-01-28T11:29:02.507Z,2.36
2017-01-28T11:30:03.707Z,2.53
2017-01-28T11:31:04.303Z,2.54
2017-01-28T11:32:05.124Z,2.47
2017-01-28T11:33:05.977Z,2.56
2017-01-28T11:34:06.530Z,2.54
2017-01-28T11:35:08.014Z,2.64
2017-01-28T11:36:09.000Z,2.65
2017-01-28T11:37:09.707Z,2.64
2017-01-28T11:38:10.387Z,2.65
2017-01-28T11:39:11.654Z,2.64
2017-01-28T11:40:12.866Z,2.67
2017-01-28T11:41:13.681Z,2.69
2017-01-28T11:42:14.634Z,2.62
2017-01-28T11:43:15.225Z,2.67
2017-01-28T11:44:16.124Z,2.75
2017-01-28T11:45:17.061Z,2.61
2017-01-28T11:46:17.586Z,2.77
2017-01-28T11:47:18.570Z,2.62
2017-01-28T11:48:19.101Z,2.74
2017-01-28T11:49:20.079Z,2.64
2017-01-28T11:50:20.824Z,2.79
2017-01-28T11:51:21.642Z,2.61
2017-01-28T11:52:22.422Z,2.68
2017-01-28T11:53:23.369Z,2.77
2017-01-28T11:54:24.254Z,2.69
2017-01-28T11:55:24.904Z,2.69
2017-01-28T11:56:25.596Z,2.69
2017-01-28T11:57:26.604Z,2.71
2017-01-28T11:58:27.645Z,2.69
2017-01-28T11:59:28.766Z,2.64
2017-01-28T12:00:29.640Z,2.67
2017-01-28T12:01:30.328Z,2.61
2017-01-28T12:02:31.047Z,2.62
2017-01-28T12:03:31.973Z,2.75
2017-01-28T12:04:32.676Z,2.69
2017-01-28T12:05:33.580Z,2.61
2017-01-28T12:06:34.066Z,2.72
2017-01-28T12:07:35.229Z,2.74
2017-01-28T12:08:36.049Z,2.8
2017-01-28T12:09:36.783Z,2.71
2017-01-28T12:10:37.975Z,2.79
2017-01-28T12:11:39.006Z,2.8
2017-01-28T12:12:40.009Z,2.87
2017-01-28T12:13:40.862Z,2.86
2017-01-28T12:14:41.854Z,2.9
2017-01-28T12:15:42.345Z,2.9
2017-01-28T12:16:43.025Z,2.87
2017-01-28T12:17:43.694Z,2.9
2017-01-28T12:18:44.405Z,2.86
2017-01-28T12:19:45.290Z,2.9
2017-01-28T12:20:46.002Z,2.9
2017-01-28T12:21:46.852Z,2.86
2017-01-28T12:22:47.596Z,2.86
2017-01-28T12:23:48.356Z,2.87
2017-01-28T12:24:48.975Z,2.85
2017-01-28T12:25:49.697Z,2.83
2017-01-28T12:26:50.442Z,2.87
2017-01-28T12:27:51.133Z,2.9
2017-01-28T12:28:51.912Z,2.89
2017-01-28T12:29:52.708Z,2.83
2017-01-28T12:30:53.331Z,2.82
2017-01-28T12:31:54.047Z,2.87
2017-01-28T12:32:54.753Z,2.87
2017-01-28T12:33:55.498Z,2.85
2017-01-28T12:34:56.213Z,2.89
2017-01-28T12:35:56.956Z,2.87
2017-01-28T12:36:57.587Z,2.9
2017-01-28T12:37:58.454Z,2.92
2017-01-28T12:38:59.221Z,2.87
2017-01-28T12:39:59.839Z,2.89
2017-01-28T12:41:00.588Z,3.01
2017-01-28T12:42:01.382Z,3.04
2017-01-28T12:43:02.070Z,2.92
2017-01-28T12:44:02.999Z,2.95
2017-01-28T12:45:03.797Z,2.97
2017-01-28T12:46:04.496Z,2.97
2017-01-28T12:47:05.211Z,2.93
2017-01-28T12:48:05.877Z,2.93
2017-01-28T12:49:06.595Z,2.95
2017-01-28T12:50:07.278Z,2.92
2017-01-28T12:51:07.976Z,2.93
2017-01-28T12:52:08.724Z,2.98
2017-01-28T12:53:09.596Z,2.93
2017-01-28T12:54:10.154Z,2.98
2017-01-28T12:55:10.835Z,3.08
2017-01-28T12:56:11.528Z,3.04
2017-01-28T12:57:12.220Z,3.01
2017-01-28T12:58:12.926Z,2.93
2017-01-28T12:59:13.739Z,3.04
2017-01-28T13:00:14.456Z,2.98
2017-01-28T13:01:15.196Z,3.03
2017-01-28T13:02:15.873Z,3.03
2017-01-28T13:03:16.571Z,3
2017-01-28T13:04:17.264Z,3.07
2017-01-28T13:05:18.016Z,3.07
2017-01-28T13:06:18.811Z,2.92
2017-01-28T13:07:19.414Z,3.05
2017-01-28T13:08:20.202Z,2.98
2017-01-28T13:09:20.923Z,2.95
2017-01-28T13:10:21.701Z,2.93
2017-01-28T13:11:22.381Z,3.04
2017-01-28T13:12:23.057Z,2.92
2017-01-28T13:13:23.810Z,2.97
2017-01-28T13:14:24.524Z,2.92
2017-01-28T13:15:25.591Z,2.95
2017-01-28T13:16:26.294Z,2.97
2017-01-28T13:17:27.175Z,2.86
2017-01-28T13:18:27.824Z,2.9
2017-01-28T13:19:29.123Z,2.83
2017-01-28T13:20:29.913Z,2.83
2017-01-28T13:21:30.933Z,2.83